Woodbury, Minnesota
Current Conditions -  °F | °C
As of 2:53 AM on Friday 24 Oct 2014 (Local Time) from KSTP Reporting Station
Moderate Fog Moderate Fog  
Wind Chill: 43°   Ceiling: 200
Heat Index: 47°   Visibility: 0.5mi
Dew Point: 47°   Wind: 8mph
Humidity: 100%   Direction: 150°SSE
Pressure: 29.97"   Gusts: NA
Location:  44.92°N, 92.94°W
Report Text: KSTP 240753Z AUTO 15007KT 1/2SM FG VV002 08/08 A2997 RMK AO2 SLP147 T00830083 RVRNO $
Loading
Personal Weather Stations






























Interactive Weather Map
Tropical Storm Tracking
New forecast layout! Learn more

10-Day Weather Forecast

Advertisements
Track Severe Weather on mobile